MUCU/SCU METAR and TAF weather

Enter ICAO airport designator
Station Type Date Time Source
MUCU METAR 2020/01/28 04:52 UTC NOAA

MUCU 280452Z 36002KT 9000 FEW020 21/18 Q1014


Station Type Date Time Source
MUCU Decoded METAR 2020/01/28 04:52 UTC NOAA

Santiago De Cuba, Oriente, Cuba (MUCU) 19-58N 075-51W 55M
Jan 27, 2020 - 11:52 PM EST / 2020.01.28 0452 UTC
Wind: from the N (360 degrees) at 2 MPH (2 KT):0
Visibility: 5 mile(s):0
Sky conditions: mostly clear
Temperature: 69 F (21 C)
Dew Point: 64 F (18 C)
Relative Humidity: 82%
Pressure (altimeter): 29.94 in. Hg (1014 hPa)
ob: MUCU 280452Z 36002KT 9000 FEW020 21/18 Q1014
cycle: 5

Station Type Date Time Source
MUCU TAF 2020/01/28 06:05 UTC NOAA

TAF MUCU 280500Z 2806/2906 36005KT 9000 SCT020
BECMG 2815/2817 22008KT
BECMG 2901/2903 36005KT

Example: see airport list